Time;durP1;ratioP1;P1;durP2;ratioP2;P2;SDS_P1;SDS_P2;PMS_P1;PMS_P2;Temp;Humidity;BMP_temperature;BMP_pressure;BME280_temperature;BME280_humidity;BME280_pressure;Samples;Min_cycle;Max_cycle;Signal;HPM_P1;HPM_P2
2023/12/09 00:23:30;1060506.00;3.54;1839.94;65298.00;0.22;113.63;;;;;11.40;1.00;;;;;;2270451;61;996;-91
2023/12/09 02:44:37;660817.00;2.20;1139.35;0.00;0.00;0.62;;;;;10.70;1.00;;;;;;2278479;61;965;-89
2023/12/09 02:49:41;674533.00;2.25;1163.10;0.00;0.00;0.62;;;;;10.80;1.00;;;;;;2274519;61;1170;-93
2023/12/09 03:02:34;201350.00;0.67;348.25;0.00;0.00;0.62;;;;;11.20;1.00;;;;;;2413588;40;3210;31
2023/12/09 04:09:31;28676.00;0.10;50.29;0.00;0.00;0.62;;;;;10.00;1.00;;;;;;2417251;40;3206;31
2023/12/09 05:02:54;1372650.00;4.58;2405.69;186823.00;0.62;323.24;;;;;10.40;1.00;;;;;;2423016;40;3246;31
2023/12/09 05:28:26;2208998.00;7.36;4062.67;93465.00;0.31;162.29;;;;;10.60;1.00;;;;;;2510871;55;3636;31
2023/12/09 12:34:27;906968.00;3.02;1568.36;98132.00;0.33;170.35;;;;;13.20;1.00;;;;;;1638495;39;3556;-88
2023/12/09 12:47:24;518180.00;1.73;893.13;0.00;0.00;0.62;;;;;12.80;1.00;;;;;;2269226;61;1364;-87
2023/12/09 12:49:53;446071.00;1.49;769.02;0.00;0.00;0.62;;;;;13.00;1.00;;;;;;2267497;61;1477;-87
2023/12/09 12:52:30;287237.00;0.96;495.98;0.00;0.00;0.62;;;;;13.30;1.00;;;;;;2268459;61;1784;-88
2023/12/09 12:55:30;35626.00;0.12;62.32;0.00;0.00;0.62;;;;;13.00;1.00;;;;;;2268276;61;1491;-87
2023/12/09 13:03:14;282116.00;0.94;487.18;0.00;0.00;0.62;;;;;13.20;1.00;;;;;;2273792;61;1287;-89
2023/12/09 13:08:38;1066051.00;3.55;1849.82;83945.00;0.28;145.85;;;;;13.20;1.00;;;;;;2266171;61;1413;-87
2023/12/09 13:13:38;322590.00;1.08;556.75;0.00;0.00;0.62;;;;;13.20;1.00;;;;;;2270616;61;1310;-88
2023/12/09 13:27:41;598229.00;1.99;1031.16;91433.00;0.30;158.78;;;;;12.90;1.00;;;;;;1999919;55;3731;-86
2023/12/09 13:30:10;132852472.00;442.84;95014648.00;93928.00;0.31;163.09;;;;;12.80;1.00;;;;;;2276485;61;1517;-89
2023/12/09 13:33:00;563416.00;1.88;971.09;86342.00;0.29;149.99;;;;;12.70;1.00;;;;;;2276268;61;1583;-88
2023/12/09 13:35:33;969240.00;3.23;1678.07;174366.00;0.58;301.79;;;;;12.80;1.00;;;;;;2276365;61;1718;-87
2023/12/09 13:43:03;1243373.00;4.14;2168.84;118339.00;0.39;205.22;;;;;12.70;1.00;;;;;;1565224;56;3939;-89
2023/12/09 13:50:45;982463.00;3.27;1701.44;91899.00;0.31;159.59;;;;;12.80;1.00;;;;;;2307216;55;3564;-87
2023/12/09 13:55:46;961530.00;3.21;1664.45;87288.00;0.29;151.62;;;;;12.60;1.00;;;;;;2309801;40;3481;-88
2023/12/09 13:58:27;470182.00;1.57;810.50;67973.00;0.23;118.26;;;;;12.70;1.00;;;;;;2299028;56;3845;-88
2023/12/09 14:01:01;411931.00;1.37;710.32;85834.00;0.29;149.11;;;;;12.60;1.00;;;;;;2359995;40;3573;-88
2023/12/09 14:03:34;219774.00;0.73;379.95;100871.00;0.34;175.08;;;;;12.60;1.00;;;;;;2268242;61;1092;-87
2023/12/09 14:11:14;974222.00;3.25;1686.87;113610.00;0.38;197.06;;;;;11.90;1.00;;;;;;2273961;61;1175;-87
2023/12/09 14:16:25;1255382.00;4.18;2190.68;91906.00;0.31;159.60;;;;;12.30;1.00;;;;;;2289581;39;3412;-87
2023/12/09 14:39:11;883081.00;2.94;1526.42;0.00;0.00;0.62;;;;;12.10;1.00;;;;;;2070167;55;3570;-86
2023/12/09 14:41:40;229322.00;0.76;396.38;0.00;0.00;0.62;;;;;11.90;1.00;;;;;;2283149;55;3748;-89
2023/12/09 14:44:07;39478.00;0.13;68.99;0.00;0.00;0.62;;;;;12.10;1.00;;;;;;2275885;61;1431;-89
2023/12/09 14:46:34;88423.00;0.29;153.58;0.00;0.00;0.62;;;;;12.20;1.00;;;;;;2298427;55;3720;-88
2023/12/09 14:49:02;178198.00;0.59;308.39;19150.00;0.06;33.80;;;;;12.10;1.00;;;;;;2272064;61;1200;-86
2023/12/09 14:51:29;28267.00;0.09;49.58;0.00;0.00;0.62;;;;;11.90;1.00;;;;;;2272122;61;1154;-88
2023/12/09 14:53:59;125442.00;0.42;217.47;0.00;0.00;0.62;;;;;12.20;1.00;;;;;;2272109;61;1554;-86
2023/12/09 14:56:31;133158.00;0.44;230.77;0.00;0.00;0.62;;;;;12.20;1.00;;;;;;2272811;61;1364;-86
2023/12/09 15:01:28;427968.00;1.43;737.89;0.00;0.00;0.62;;;;;12.10;1.00;;;;;;2274248;61;1436;-88
2023/12/09 15:03:58;327118.00;1.09;564.53;0.00;0.00;0.62;;;;;11.90;1.00;;;;;;2291299;56;3739;-87
2023/12/09 15:06:30;141517.00;0.47;245.19;13129.00;0.04;23.37;;;;;12.10;1.00;;;;;;2275969;61;1348;-88
2023/12/09 15:08:59;715601.00;2.39;1234.30;71460.00;0.24;124.28;;;;;12.00;1.00;;;;;;2272860;61;1108;-88
2023/12/09 15:11:28;1854080.00;6.18;3328.88;92162.00;0.31;160.04;;;;;12.10;1.00;;;;;;2272721;61;1250;-87
2023/12/09 15:13:55;1029050.00;3.43;1783.99;96909.00;0.32;168.24;;;;;12.40;1.00;;;;;;2272820;61;1157;-88
2023/12/09 15:16:28;1074107.00;3.58;1864.18;150833.00;0.50;261.24;;;;;12.20;1.00;;;;;;2272871;61;1393;-88
2023/12/09 15:18:55;123660136.00;412.20;76609000.00;114290.00;0.38;198.23;;;;;12.30;1.00;;;;;;2272701;61;2009;-88
2023/12/09 15:21:29;722028.00;2.41;1245.46;114750.00;0.38;199.03;;;;;12.50;1.00;;;;;;2272708;61;884;-86
2023/12/09 15:23:57;124868976.00;416.23;78879912.00;90653.00;0.30;157.44;;;;;12.30;1.00;;;;;;2272791;61;1063;-87
2023/12/09 15:26:24;117769592.00;392.57;66165516.00;117034.00;0.39;202.97;;;;;12.20;1.00;;;;;;2272641;61;1564;-86
2023/12/09 15:28:55;500627.00;1.67;862.90;121825.00;0.41;211.23;;;;;12.20;1.00;;;;;;2272699;61;1111;-87
2023/12/09 15:31:23;224442.00;0.75;387.99;0.00;0.00;0.62;;;;;12.30;1.00;;;;;;2272686;61;1625;-89
2023/12/09 15:33:52;46729.00;0.16;81.53;0.00;0.00;0.62;;;;;11.90;1.00;;;;;;2272741;61;1605;-89
2023/12/09 15:36:19;26390.00;0.09;46.33;0.00;0.00;0.62;;;;;12.10;1.00;;;;;;2272726;61;2179;-87
2023/12/09 15:38:46;85462.00;0.28;148.47;0.00;0.00;0.62;;;;;11.90;1.00;;;;;;2272703;61;1922;-89
2023/12/09 15:41:13;64842.00;0.22;112.85;0.00;0.00;0.62;;;;;12.10;1.00;;;;;;2272696;61;1716;-86
2023/12/09 15:43:40;115415.00;0.38;200.17;0.00;0.00;0.62;;;;;12.10;1.00;;;;;;2272745;61;986;-88
2023/12/09 15:46:08;250378.00;0.83;432.60;0.00;0.00;0.62;;;;;12.00;1.00;;;;;;2272725;61;1670;-85
2023/12/09 15:48:39;195328.00;0.65;337.88;0.00;0.00;0.62;;;;;11.80;1.00;;;;;;2272726;61;1213;-87
2023/12/09 15:51:07;38434.00;0.13;67.18;0.00;0.00;0.62;;;;;11.80;1.00;;;;;;2272667;61;1436;-87
2023/12/09 15:53:37;83881.00;0.28;145.74;0.00;0.00;0.62;;;;;12.00;1.00;;;;;;2272728;61;1147;-86
2023/12/09 15:56:05;82626.00;0.28;143.57;0.00;0.00;0.62;;;;;12.10;1.00;;;;;;2272710;61;1366;-85
2023/12/09 15:58:32;22370.00;0.07;39.37;0.00;0.00;0.62;;;;;12.10;1.00;;;;;;2272574;61;1912;-85
2023/12/09 16:01:00;179211.00;0.60;310.13;0.00;0.00;0.62;;;;;12.00;1.00;;;;;;2272694;61;1111;-86
2023/12/09 16:06:06;1100855.00;3.67;1911.95;110212.00;0.37;191.20;;;;;12.10;1.00;;;;;;2274322;61;1439;-87
2023/12/09 16:08:35;1478080.00;4.93;2601.94;192089.00;0.64;332.31;;;;;12.00;1.00;;;;;;2272693;61;924;-87
2023/12/09 16:11:02;1497699.00;4.99;2638.79;179467.00;0.60;310.57;;;;;11.90;1.00;;;;;;2272628;61;1434;-87
2023/12/09 16:13:30;565716.00;1.89;975.06;147772.00;0.49;255.97;;;;;12.00;1.00;;;;;;2272527;61;1514;-87
2023/12/09 16:15:57;533093.00;1.78;918.82;69025.00;0.23;120.08;;;;;12.00;1.00;;;;;;2272608;61;1048;-87
2023/12/09 16:18:24;314970.00;1.05;543.65;87920.00;0.29;152.72;;;;;12.20;1.00;;;;;;2272635;61;1994;-87
2023/12/09 16:20:56;225910.00;0.75;390.51;102107.00;0.34;177.21;;;;;12.20;1.00;;;;;;2281314;55;3731;-85
2023/12/09 16:23:25;473126.00;1.58;815.57;83967.00;0.28;145.89;;;;;11.80;1.00;;;;;;2300153;40;3653;-87
2023/12/09 16:25:51;30785.00;0.10;53.94;0.00;0.00;0.62;;;;;11.60;1.00;;;;;;2277295;61;957;-84
2023/12/09 16:28:18;254236.00;0.85;439.24;0.00;0.00;0.62;;;;;11.50;1.00;;;;;;2273126;61;1414;-88
2023/12/09 16:30:53;15253.00;0.05;27.05;0.00;0.00;0.62;;;;;11.50;1.00;;;;;;2272657;61;950;-87
2023/12/09 16:33:20;106197.00;0.35;184.27;0.00;0.00;0.62;;;;;11.50;1.00;;;;;;2272546;61;912;-86
2023/12/09 16:35:50;107909.00;0.36;187.22;0.00;0.00;0.62;;;;;11.60;1.00;;;;;;2272601;61;995;-88
2023/12/09 16:38:17;207666.00;0.69;359.12;0.00;0.00;0.62;;;;;11.80;1.00;;;;;;2272404;61;1923;-87
2023/12/09 16:40:53;302062.00;1.01;521.46;0.00;0.00;0.62;;;;;11.70;1.00;;;;;;2290862;56;3766;-88
2023/12/09 16:43:22;130673.00;0.44;226.49;0.00;0.00;0.62;;;;;11.90;1.00;;;;;;2276618;61;1602;-87
2023/12/09 16:45:49;78589.00;0.26;136.60;0.00;0.00;0.62;;;;;11.90;1.00;;;;;;2276600;61;1110;-88
2023/12/09 16:48:18;83685.00;0.28;145.40;0.00;0.00;0.62;;;;;12.00;1.00;;;;;;2272568;61;1533;-87
2023/12/09 16:50:45;327883.00;1.09;565.85;61801.00;0.21;107.59;;;;;11.90;1.00;;;;;;2272506;61;1476;-85
2023/12/09 16:53:14;0.00;0.00;0.62;0.00;0.00;0.62;;;;;11.80;1.00;;;;;;2272534;61;1031;-88
2023/12/09 16:55:42;62502.00;0.21;108.80;0.00;0.00;0.62;;;;;11.70;1.00;;;;;;2272442;61;1431;-84
2023/12/09 16:58:13;208753.00;0.70;360.99;0.00;0.00;0.62;;;;;11.50;1.00;;;;;;2272338;61;2002;-87
2023/12/09 17:00:56;247097.00;0.82;426.96;0.00;0.00;0.62;;;;;11.60;1.00;;;;;;2272560;61;1166;-88
2023/12/09 17:03:25;958511.00;3.20;1659.13;80814.00;0.27;140.44;;;;;11.60;1.00;;;;;;2272432;61;1429;-86
2023/12/09 17:05:52;517888.00;1.73;892.63;91763.00;0.31;159.35;;;;;11.40;1.00;;;;;;2272477;61;1006;-87
2023/12/09 17:08:20;835197.00;2.78;1442.58;150822.00;0.50;261.22;;;;;11.40;1.00;;;;;;2268571;61;1425;-87
2023/12/09 17:10:50;323826.00;1.08;558.87;95298.00;0.32;165.46;;;;;11.50;1.00;;;;;;2268367;61;1581;-89
2023/12/09 17:13:21;183993.00;0.61;318.37;91118.00;0.30;158.24;;;;;11.50;1.00;;;;;;2268393;61;1017;-86
2023/12/09 17:15:49;39118.00;0.13;68.36;0.00;0.00;0.62;;;;;11.40;1.00;;;;;;2268427;61;1015;-87
2023/12/09 17:18:16;216968.00;0.72;375.13;0.00;0.00;0.62;;;;;11.00;1.00;;;;;;2268217;61;1948;-88
2023/12/09 17:20:43;0.00;0.00;0.62;0.00;0.00;0.62;;;;;11.20;1.00;;;;;;2268443;61;1007;-85
2023/12/09 17:23:10;111888.00;0.37;194.09;0.00;0.00;0.62;;;;;11.10;1.00;;;;;;2268474;61;1122;-88
2023/12/09 17:25:39;181059.00;0.60;313.31;0.00;0.00;0.62;;;;;10.90;1.00;;;;;;2268384;61;1473;-87
2023/12/09 17:28:07;118004.00;0.39;204.64;0.00;0.00;0.62;;;;;10.90;1.00;;;;;;2268388;61;1424;-86
2023/12/09 17:30:35;0.00;0.00;0.62;0.00;0.00;0.62;;;;;10.90;1.00;;;;;;2268414;61;1522;-86
2023/12/09 17:33:03;115237.00;0.38;199.87;0.00;0.00;0.62;;;;;10.60;1.00;;;;;;2268375;61;1107;-87
2023/12/09 17:35:31;0.00;0.00;0.62;0.00;0.00;0.62;;;;;10.70;1.00;;;;;;2268329;61;1058;-85
2023/12/09 17:38:04;120131.00;0.40;208.31;0.00;0.00;0.62;;;;;10.70;1.00;;;;;;2268177;61;1920;-88
2023/12/09 17:40:34;39385.00;0.13;68.82;0.00;0.00;0.62;;;;;10.70;1.00;;;;;;2268202;61;1096;-87
2023/12/09 17:43:01;407289.00;1.36;702.34;0.00;0.00;0.62;;;;;10.90;1.00;;;;;;2268260;61;1776;-85
2023/12/09 17:45:28;129549.00;0.43;224.55;0.00;0.00;0.62;;;;;10.90;1.00;;;;;;2268233;61;1083;-84
2023/12/09 17:48:00;87859.00;0.29;152.61;0.00;0.00;0.62;;;;;11.00;1.00;;;;;;2268254;61;1342;-87
2023/12/09 17:50:32;111273.00;0.37;193.03;0.00;0.00;0.62;;;;;11.10;1.00;;;;;;2268328;61;1121;-86
2023/12/09 17:53:05;644584.00;2.15;1111.27;71971.00;0.24;125.17;;;;;11.10;1.00;;;;;;2281659;40;3561;-87
2023/12/09 17:55:34;1100431.00;3.67;1911.19;59669.00;0.20;103.90;;;;;11.00;1.00;;;;;;2276449;61;1119;-87
2023/12/09 17:58:02;1759692.00;5.87;3142.00;144123.00;0.48;249.68;;;;;11.10;1.00;;;;;;2272642;61;1998;-86
2023/12/09 18:00:30;1491176.00;4.97;2626.53;46285.00;0.15;80.76;;;;;11.10;1.00;;;;;;2272338;61;1554;-87
2023/12/09 18:03:08;892342.00;2.97;1542.67;129089.00;0.43;223.76;;;;;11.20;1.00;;;;;;2272402;61;959;-87
2023/12/09 18:05:39;1464660.00;4.88;2576.80;188650.00;0.63;326.38;;;;;10.90;1.00;;;;;;2272289;61;1566;-86
2023/12/09 18:13:12;481549.00;1.61;830.06;0.00;0.00;0.62;;;;;11.30;1.00;;;;;;2274454;61;1297;-89
2023/12/09 18:15:39;44187.00;0.15;77.13;0.00;0.00;0.62;;;;;11.40;1.00;;;;;;2272186;61;1055;-86
2023/12/09 18:18:10;245141.00;0.82;423.59;16264.00;0.05;28.80;;;;;11.40;1.00;;;;;;2272169;61;1916;-85
2023/12/09 18:20:37;52827.00;0.18;92.07;0.00;0.00;0.62;;;;;11.20;1.00;;;;;;2272273;61;1102;-86
2023/12/09 18:23:09;37117.00;0.12;64.90;0.00;0.00;0.62;;;;;11.20;1.00;;;;;;2272142;61;1428;-87
2023/12/09 18:25:36;789969.00;2.63;1363.64;4310.00;0.01;8.09;;;;;11.30;1.00;;;;;;2272345;61;1071;-86
2023/12/09 18:28:07;1642102.00;5.47;2913.48;91907.00;0.31;159.60;;;;;11.40;1.00;;;;;;2271933;61;1551;-86
2023/12/09 18:30:41;457715.00;1.53;789.05;96521.00;0.32;167.57;;;;;11.70;1.00;;;;;;2272123;61;2194;-87
2023/12/09 18:33:10;314408.00;1.05;542.69;132623.00;0.44;229.85;;;;;11.70;1.00;;;;;;2272292;61;942;-88
2023/12/09 18:35:39;259051.00;0.86;447.52;91700.00;0.31;159.24;;;;;11.80;1.00;;;;;;2272031;61;1984;-89
2023/12/09 18:38:11;256290.00;0.85;442.77;0.00;0.00;0.62;;;;;11.90;1.00;;;;;;2272135;61;2006;-86
2023/12/09 18:40:40;286782.00;0.96;495.20;0.00;0.00;0.62;;;;;11.60;1.00;;;;;;2306375;56;3774;-87
2023/12/09 18:43:10;247764.00;0.83;428.11;0.00;0.00;0.62;;;;;11.50;1.00;;;;;;2276189;61;1139;-87
2023/12/09 18:45:41;89098.00;0.30;154.75;14245.00;0.05;25.30;;;;;11.50;1.00;;;;;;2276143;61;1220;-84
2023/12/09 18:48:09;299342.00;1.00;516.79;0.00;0.00;0.62;;;;;11.40;1.00;;;;;;2272452;61;1521;-86
2023/12/09 18:50:36;192987.00;0.64;333.85;0.00;0.00;0.62;;;;;11.70;1.00;;;;;;2271858;61;1046;-84
2023/12/09 18:53:10;174697.00;0.58;302.36;6807.00;0.02;12.42;;;;;11.70;1.00;;;;;;2272176;61;990;-88
2023/12/09 18:55:37;226269.00;0.75;391.13;29635.00;0.10;51.95;;;;;11.90;1.00;;;;;;2272082;61;1132;-86
2023/12/09 18:58:05;392381.00;1.31;676.71;0.00;0.00;0.62;;;;;11.90;1.00;;;;;;2271942;61;2014;-87
2023/12/09 19:00:32;927849.00;3.09;1605.09;85404.00;0.28;148.37;;;;;12.00;1.00;;;;;;2276866;55;3748;-88
2023/12/09 19:03:00;1746811.00;5.82;3116.74;124627.00;0.42;216.06;;;;;12.20;1.00;;;;;;2276156;61;1407;-88
2023/12/09 19:05:29;301710.00;1.01;520.86;95483.00;0.32;165.77;;;;;12.20;1.00;;;;;;2276061;61;1443;-88
2023/12/09 19:07:56;581127.00;1.94;1001.64;90692.00;0.30;157.50;;;;;12.20;1.00;;;;;;2272608;61;1518;-87
2023/12/09 19:10:23;141449.00;0.47;245.07;0.00;0.00;0.62;;;;;12.10;1.00;;;;;;2272136;61;1103;-87
2023/12/09 19:15:25;1390392.00;4.63;2438.52;220358.00;0.73;380.96;;;;;12.10;1.00;;;;;;2152007;59;1946;-87
2023/12/09 19:17:52;113332.00;0.38;196.58;0.00;0.00;0.62;;;;;12.10;1.00;;;;;;2272029;61;1467;-89
2023/12/09 19:20:22;12884.00;0.04;22.95;0.00;0.00;0.62;;;;;12.20;1.00;;;;;;2272115;61;1997;-89
2023/12/09 19:22:53;0.00;0.00;0.62;0.00;0.00;0.62;;;;;12.40;1.00;;;;;;2271989;61;1527;-87
2023/12/09 19:27:50;683906.00;2.28;1179.34;0.00;0.00;0.62;;;;;12.20;1.00;;;;;;2274314;61;1346;-90
2023/12/09 19:30:17;286063.00;0.95;493.96;0.00;0.00;0.62;;;;;12.20;1.00;;;;;;2272630;61;1537;-89
2023/12/09 19:47:54;493875.00;1.65;851.28;0.00;0.00;0.62;;;;;12.20;1.00;;;;;;2273916;61;1278;-90
2023/12/09 19:50:21;429513.00;1.43;740.55;10720.00;0.04;19.20;;;;;12.40;1.00;;;;;;2284598;40;3599;-87
2023/12/09 19:52:51;2264433.00;7.55;4182.19;145081.00;0.48;251.33;;;;;12.50;1.00;;;;;;2276147;61;1544;-88
2023/12/09 19:55:18;1085385.00;3.62;1884.31;71055.00;0.24;123.58;;;;;12.40;1.00;;;;;;2276457;61;1049;-89
2023/12/09 19:57:45;655760.00;2.19;1130.60;0.00;0.00;0.62;;;;;12.30;1.00;;;;;;2285621;40;3727;-88
2023/12/09 20:02:46;845290.00;2.82;1460.23;70517.00;0.24;122.65;;;;;12.00;1.00;;;;;;830502;56;3607;-87
2023/12/09 20:20:34;327246.00;1.09;564.75;0.00;0.00;0.62;;;;;11.30;3.40;;;;;;2269619;61;2001;-90
2023/12/09 20:23:02;638152.00;2.13;1100.14;76441.00;0.25;132.89;;;;;11.40;2.90;;;;;;2268302;61;1662;-87
2023/12/09 20:25:29;40937.00;0.14;71.51;0.00;0.00;0.62;;;;;11.20;4.20;;;;;;2268463;61;987;-88
2023/12/09 20:27:56;317680.00;1.06;548.31;2737.00;0.01;5.36;;;;;11.20;4.50;;;;;;2268380;61;1349;-88
2023/12/09 20:30:26;159178.00;0.53;275.62;0.00;0.00;0.62;;;;;11.40;3.40;;;;;;2268251;61;1006;-88
2023/12/09 20:32:53;338001.00;1.13;583.24;0.00;0.00;0.62;;;;;11.20;4.90;;;;;;2267966;61;911;-87
2023/12/09 20:35:20;221695.00;0.74;383.26;0.00;0.00;0.62;;;;;10.80;7.10;;;;;;2324069;40;3579;-87
2023/12/09 20:42:56;312221.00;1.04;538.93;0.00;0.00;0.62;;;;;10.70;8.00;;;;;;1490127;55;3108;-88
2023/12/09 20:45:26;970854.00;3.24;1680.92;66215.00;0.22;115.22;;;;;10.40;10.20;;;;;;2326267;40;3553;-88
2023/12/09 20:47:56;1284848.00;4.28;2244.40;5426.00;0.02;10.02;;;;;10.50;9.80;;;;;;2274448;61;1647;-88
2023/12/09 20:50:23;703046.00;2.34;1212.52;93767.00;0.31;162.81;;;;;10.40;10.00;;;;;;2272103;61;1694;-88
2023/12/09 20:55:19;519216.00;1.73;894.91;0.00;0.00;0.62;;;;;10.60;9.50;;;;;;2296708;40;3532;-87
2023/12/09 21:00:24;25418.00;0.08;44.65;0.00;0.00;0.62;;;;;10.50;9.10;;;;;;840761;59;2191;-88
2023/12/09 21:02:52;160744.00;0.54;278.32;16439.00;0.05;29.10;;;;;10.40;10.30;;;;;;2301917;55;3765;-87
2023/12/09 21:12:46;704896.00;2.35;1215.73;84161.00;0.28;146.22;;;;;11.10;7.10;;;;;;2270279;61;1424;-88
2023/12/09 21:15:16;186218.00;0.62;322.20;0.00;0.00;0.62;;;;;11.00;7.30;;;;;;2274222;40;3579;-90
2023/12/09 21:17:54;288187.00;0.96;497.61;0.00;0.00;0.62;;;;;10.90;7.70;;;;;;2269195;61;1364;-88
2023/12/09 21:20:23;643801.00;2.15;1109.91;31125.00;0.10;54.53;;;;;11.10;6.60;;;;;;2268376;61;1997;-86
2023/12/09 21:22:53;1092910.00;3.64;1897.75;153416.00;0.51;265.69;;;;;11.10;6.70;;;;;;2355986;55;3695;-89
2023/12/09 21:30:20;1160750.00;3.87;2019.41;90368.00;0.30;156.94;;;;;10.90;8.90;;;;;;2274178;61;1194;-89
2023/12/09 21:43:03;430253.00;1.43;741.82;0.00;0.00;0.62;;;;;11.10;7.00;;;;;;2276714;61;1917;-87
2023/12/09 21:45:33;40293.00;0.13;70.40;0.00;0.00;0.62;;;;;11.00;7.50;;;;;;2272002;61;985;-87
2023/12/09 21:48:03;332665.00;1.11;574.07;11085.00;0.04;19.83;;;;;11.10;7.40;;;;;;2272067;61;1262;-87
2023/12/09 21:50:31;853625.00;2.85;1474.81;27516.00;0.09;48.28;;;;;11.00;7.20;;;;;;2268365;61;1636;-87
2023/12/09 21:52:58;125548.00;0.42;217.65;0.00;0.00;0.62;;;;;11.10;7.50;;;;;;2272053;61;956;-87
2023/12/09 21:55:25;177051.00;0.59;306.41;0.00;0.00;0.62;;;;;11.10;7.10;;;;;;2272040;61;1012;-88
2023/12/09 21:57:53;81530.00;0.27;141.68;0.00;0.00;0.62;;;;;10.90;7.30;;;;;;2271995;61;1556;-89
2023/12/09 22:00:21;865383.00;2.88;1495.40;7759.00;0.03;14.07;;;;;10.80;9.00;;;;;;2272053;61;1924;-87
2023/12/09 22:02:52;180453.00;0.60;312.27;0.00;0.00;0.62;;;;;10.60;10.50;;;;;;2271939;61;996;-88
2023/12/09 22:05:20;148934.00;0.50;257.97;36241.00;0.12;63.38;;;;;10.60;10.20;;;;;;2255399;56;1259700;-87
2023/12/09 22:07:47;561916.00;1.87;968.50;63192.00;0.21;109.99;;;;;10.80;9.20;;;;;;2279264;61;1480;-88
2023/12/09 22:10:17;1793741.00;5.98;3209.05;75649.00;0.25;131.52;;;;;11.00;9.40;;;;;;2280416;61;1685;-86
2023/12/09 22:12:46;1445399.00;4.82;2540.79;169138.00;0.56;292.78;;;;;11.10;7.30;;;;;;2280416;61;1597;-88
2023/12/09 22:15:19;487548.00;1.63;840.39;84631.00;0.28;147.04;;;;;11.20;6.90;;;;;;2279946;61;1335;-88
2023/12/09 22:17:50;26836.00;0.09;47.11;0.00;0.00;0.62;;;;;11.00;7.70;;;;;;2280369;61;1472;-88
2023/12/09 22:20:19;71838.00;0.24;124.94;0.00;0.00;0.62;;;;;10.90;8.30;;;;;;2280404;61;2006;-87
2023/12/09 22:22:46;446658.00;1.49;770.03;0.00;0.00;0.62;;;;;10.80;9.00;;;;;;2280357;61;1134;-87
2023/12/09 22:25:18;228469.00;0.76;394.91;0.00;0.00;0.62;;;;;10.70;10.50;;;;;;2280362;61;1124;-88
2023/12/09 22:27:45;1298160.00;4.33;2268.74;75079.00;0.25;130.54;;;;;11.10;8.00;;;;;;2277956;61;1913;-86
2023/12/09 22:30:13;513992.00;1.71;885.92;0.00;0.00;0.62;;;;;11.20;6.40;;;;;;2276294;61;981;-87
2023/12/09 22:32:40;266403.00;0.89;460.16;0.00;0.00;0.62;;;;;11.20;6.20;;;;;;2280421;61;902;-87
2023/12/09 22:35:09;83846.00;0.28;145.68;0.00;0.00;0.62;;;;;11.20;6.50;;;;;;2280349;61;1289;-86
2023/12/09 22:37:39;38259.00;0.13;66.88;0.00;0.00;0.62;;;;;11.30;5.50;;;;;;2280264;61;1439;-86
2023/12/09 22:40:07;676388.00;2.25;1166.32;51651.00;0.17;90.04;;;;;11.20;5.60;;;;;;2280251;61;2004;-87
2023/12/09 22:42:35;780933.00;2.60;1347.89;0.00;0.00;0.62;;;;;11.20;6.00;;;;;;2280255;61;1581;-88
2023/12/09 22:45:03;43004.00;0.14;75.09;0.00;0.00;0.62;;;;;11.40;5.20;;;;;;2280175;61;1036;-86
2023/12/09 22:47:30;2211.00;0.01;4.45;0.00;0.00;0.62;;;;;11.50;4.40;;;;;;2280249;61;1482;-87
2023/12/09 22:49:57;161541.00;0.54;279.69;0.00;0.00;0.62;;;;;11.60;3.60;;;;;;2280298;61;1481;-87
2023/12/09 22:52:26;127416.00;0.42;220.87;0.00;0.00;0.62;;;;;11.40;4.10;;;;;;2280212;61;1430;-87
2023/12/09 22:54:53;0.00;0.00;0.62;0.00;0.00;0.62;;;;;11.40;4.70;;;;;;2280312;61;1055;-86
2023/12/09 22:57:20;228126.00;0.76;394.32;15184.00;0.05;26.93;;;;;11.30;4.60;;;;;;2280195;61;1352;-88
2023/12/09 22:59:47;942333.00;3.14;1630.60;129182.00;0.43;223.92;;;;;11.40;4.70;;;;;;2280236;61;1911;-87
2023/12/09 23:02:14;1617100.00;5.39;2865.46;119054.00;0.40;206.45;;;;;11.40;4.90;;;;;;2280283;61;1471;-86
2023/12/09 23:04:41;1408696.00;4.70;2472.46;65689.00;0.22;114.31;;;;;11.40;4.30;;;;;;2280085;61;2326;-87
2023/12/09 23:07:08;404534.00;1.35;697.60;87377.00;0.29;151.78;;;;;11.60;3.00;;;;;;2280229;61;1380;-87
2023/12/09 23:09:38;423576.00;1.41;730.34;90805.00;0.30;157.70;;;;;11.60;3.00;;;;;;2280069;61;1035;-86
2023/12/09 23:12:08;107607.00;0.36;186.70;0.00;0.00;0.62;;;;;11.60;3.50;;;;;;2280191;61;1144;-87
2023/12/09 23:14:40;678960.00;2.26;1170.77;121198.00;0.40;210.15;;;;;11.70;3.30;;;;;;2280064;61;1385;-88
2023/12/09 23:17:07;260527.00;0.87;450.05;0.00;0.00;0.62;;;;;11.90;2.10;;;;;;2280699;61;1432;-89
2023/12/09 23:19:34;348192.00;1.16;600.75;0.00;0.00;0.62;;;;;11.90;1.80;;;;;;2280863;61;2000;-87
2023/12/09 23:22:01;659416.00;2.20;1136.93;82999.00;0.28;144.22;;;;;12.00;1.20;;;;;;2280845;61;1430;-88
2023/12/09 23:24:30;117933.00;0.39;204.52;0.00;0.00;0.62;;;;;11.90;1.20;;;;;;2280815;61;991;-86
2023/12/09 23:26:58;287599.00;0.96;496.60;0.00;0.00;0.62;;;;;11.70;1.30;;;;;;2280964;61;1305;-87
2023/12/09 23:29:26;273156.00;0.91;471.77;0.00;0.00;0.62;;;;;11.60;2.10;;;;;;2280939;61;1219;-88
2023/12/09 23:31:54;480218.00;1.60;827.77;39039.00;0.13;68.23;;;;;11.50;1.80;;;;;;2280756;61;1497;-85
2023/12/09 23:34:21;1004066.00;3.35;1739.67;43759.00;0.15;76.39;;;;;11.50;1.00;;;;;;2280858;61;1577;-87
2023/12/09 23:36:48;1447306.00;4.82;2544.35;122047.00;0.41;211.61;;;;;11.50;1.00;;;;;;2280811;61;1463;-87
2023/12/09 23:39:17;1310680.00;4.37;2291.66;65443.00;0.22;113.89;;;;;11.50;1.00;;;;;;2280606;61;2259;-86
2023/12/09 23:41:46;575862.00;1.92;992.56;90679.00;0.30;157.48;;;;;11.40;1.00;;;;;;2280532;61;1546;-87
2023/12/09 23:44:15;788994.00;2.63;1361.94;225445.00;0.75;389.71;;;;;11.50;1.00;;;;;;2280600;61;1057;-87
2023/12/09 23:46:42;335917.00;1.12;579.66;0.00;0.00;0.62;;;;;11.60;1.00;;;;;;2280609;61;1394;-87
2023/12/09 23:49:09;420101.00;1.40;724.36;0.00;0.00;0.62;;;;;11.70;1.00;;;;;;2280592;61;1462;-87
2023/12/09 23:51:36;390648.00;1.30;673.73;22911.00;0.08;40.31;;;;;11.80;1.00;;;;;;2280751;61;1674;-85
2023/12/09 23:54:03;240523.00;0.80;415.65;0.00;0.00;0.62;;;;;12.00;1.00;;;;;;2280774;61;1551;-86
2023/12/09 23:56:30;325522.00;1.09;561.79;0.00;0.00;0.62;;;;;12.00;1.00;;;;;;2280655;61;1567;-86
2023/12/09 23:59:00;223114.00;0.74;385.70;0.00;0.00;0.62;;;;;11.90;1.00;;;;;;2280633;61;1591;-85
